createdAt,value
2023-04-28T00:01:40.279Z,99204.78
2023-04-28T00:04:06.824Z,99206.94
2023-04-28T00:06:33.607Z,99198.59
2023-04-28T00:09:00.017Z,99187.28
2023-04-28T00:11:26.700Z,99185.78
2023-04-28T00:13:53.255Z,99188.63
2023-04-28T00:16:19.880Z,99186.44
2023-04-28T00:18:46.502Z,99172.41
2023-04-28T00:21:12.983Z,99163.59
2023-04-28T00:23:39.419Z,99155.09
2023-04-28T00:26:05.992Z,99154.28
2023-04-28T00:28:34.593Z,99146.84
2023-04-28T00:31:02.276Z,99135.00
2023-04-28T00:33:28.749Z,99142.75
2023-04-28T00:36:01.886Z,99135.78
2023-04-28T00:38:28.460Z,99119.53
2023-04-28T00:40:55.217Z,99111.53
2023-04-28T00:43:22.113Z,99116.56
2023-04-28T00:45:52.737Z,99125.22
2023-04-28T00:48:20.307Z,99129.44
2023-04-28T00:50:48.226Z,99114.75
2023-04-28T00:53:14.816Z,99108.97
2023-04-28T00:55:41.599Z,99118.31
2023-04-28T00:58:09.438Z,99122.81
2023-04-28T01:00:36.251Z,99121.53
2023-04-28T01:03:03.222Z,99127.69
2023-04-28T01:05:31.186Z,99135.50
2023-04-28T01:07:57.657Z,99136.84
2023-04-28T01:10:24.186Z,99137.53
2023-04-28T01:12:50.668Z,99133.38
2023-04-28T01:15:19.037Z,99126.84
2023-04-28T01:17:46.605Z,99118.97
2023-04-28T01:20:14.240Z,99122.09
2023-04-28T01:22:41.322Z,99111.44
2023-04-28T01:25:08.337Z,99107.94
2023-04-28T01:27:34.770Z,99107.13
2023-04-28T01:30:01.478Z,99112.63
2023-04-28T01:32:28.185Z,99129.72
2023-04-28T01:34:54.824Z,99115.59
2023-04-28T01:37:21.317Z,99118.16
2023-04-28T01:39:48.026Z,99124.19
2023-04-28T01:42:14.518Z,99127.53
2023-04-28T01:44:41.026Z,99135.41
2023-04-28T01:47:07.537Z,99123.03
2023-04-28T01:49:33.961Z,99123.31
2023-04-28T01:52:00.768Z,99116.34
2023-04-28T01:54:27.288Z,99116.50
2023-04-28T01:56:53.959Z,99114.41
2023-04-28T01:59:20.681Z,99126.41
2023-04-28T02:01:47.166Z,99130.28
2023-04-28T02:04:14.091Z,99133.13
2023-04-28T02:06:40.695Z,99131.94
2023-04-28T02:09:07.342Z,99136.09
2023-04-28T02:11:33.775Z,99145.38
2023-04-28T02:14:00.441Z,99131.69
2023-04-28T02:16:27.329Z,99142.69
2023-04-28T02:18:53.946Z,99145.72
2023-04-28T02:21:20.907Z,99150.41
2023-04-28T02:23:47.287Z,99154.53
2023-04-28T02:26:13.688Z,99135.88
2023-04-28T02:28:40.404Z,99137.00
2023-04-28T02:31:07.970Z,99136.53
2023-04-28T02:33:34.792Z,99140.69
2023-04-28T02:36:03.481Z,99147.16
2023-04-28T02:38:30.046Z,99146.44
2023-04-28T02:41:01.124Z,99133.63
2023-04-28T02:43:28.731Z,99135.81
2023-04-28T02:45:55.796Z,99132.78
2023-04-28T02:48:24.099Z,99128.94
2023-04-28T02:50:50.912Z,99138.94
2023-04-28T02:53:17.432Z,99142.63
2023-04-28T02:55:43.964Z,99144.47
2023-04-28T02:58:10.542Z,99142.63
2023-04-28T03:00:37.010Z,99154.94
2023-04-28T03:03:03.575Z,99151.09
2023-04-28T03:05:30.179Z,99159.25
2023-04-28T03:07:56.670Z,99171.97
2023-04-28T03:10:23.632Z,99179.75
2023-04-28T03:12:50.506Z,99190.91
2023-04-28T03:15:17.298Z,99196.38
2023-04-28T03:17:44.390Z,99217.69
2023-04-28T03:20:11.472Z,99217.50
2023-04-28T03:22:37.942Z,99223.19
2023-04-28T03:25:04.733Z,99224.84
2023-04-28T03:27:33.496Z,99267.16
2023-04-28T03:30:00.294Z,99272.31
2023-04-28T03:32:27.008Z,99268.16
2023-04-28T03:34:53.349Z,99271.31
2023-04-28T03:37:20.169Z,99300.16
2023-04-28T03:39:46.971Z,99313.50
2023-04-28T03:42:13.516Z,99317.00
2023-04-28T03:44:40.251Z,99349.81
2023-04-28T03:47:06.851Z,99362.53
2023-04-28T03:49:33.386Z,99367.03
2023-04-28T03:52:00.112Z,99366.84
2023-04-28T03:54:26.592Z,99388.16
2023-04-28T03:56:53.283Z,99407.50
2023-04-28T03:59:19.673Z,99429.81
2023-04-28T04:01:46.309Z,99425.31
2023-04-28T04:04:12.900Z,99412.66
2023-04-28T04:06:39.962Z,99425.47
2023-04-28T04:09:06.635Z,99416.41
2023-04-28T04:11:33.094Z,99383.75
2023-04-28T04:13:59.570Z,99425.63
2023-04-28T04:16:26.488Z,99436.16
2023-04-28T04:18:53.351Z,99463.44
2023-04-28T04:21:19.915Z,99450.13
2023-04-28T04:23:46.302Z,99448.13
2023-04-28T04:26:13.106Z,99447.44
2023-04-28T04:28:39.810Z,99456.44
2023-04-28T04:31:06.401Z,99468.28
2023-04-28T04:33:33.222Z,99458.25
2023-04-28T04:35:59.693Z,99444.75
2023-04-28T04:38:26.621Z,99431.06
2023-04-28T04:40:53.018Z,99424.34
2023-04-28T04:43:19.772Z,99436.34
2023-04-28T04:45:46.395Z,99440.84
2023-04-28T04:48:13.204Z,99453.81
2023-04-28T04:50:40.644Z,99455.19
2023-04-28T04:53:10.623Z,99465.38
2023-04-28T04:55:39.910Z,99478.06
2023-04-28T04:58:06.739Z,99505.56
2023-04-28T05:00:33.544Z,99529.75
2023-04-28T05:03:00.458Z,99523.50
2023-04-28T05:05:27.271Z,99516.03
2023-04-28T05:07:53.784Z,99536.88
2023-04-28T05:10:20.134Z,99565.94
2023-04-28T05:12:49.008Z,99597.31
2023-04-28T05:15:16.032Z,99647.81
2023-04-28T05:17:42.652Z,98869.78
2023-04-28T05:20:10.203Z,98842.34
2023-04-28T05:22:38.149Z,98809.31
2023-04-28T05:25:05.129Z,98783.53
2023-04-28T05:27:31.883Z,98771.25
2023-04-28T05:29:58.231Z,98767.63
2023-04-28T05:32:24.805Z,98768.91
2023-04-28T05:34:51.314Z,98759.56
2023-04-28T05:37:17.803Z,98749.75
2023-04-28T05:39:44.785Z,98749.34
2023-04-28T05:42:11.225Z,98737.72
2023-04-28T05:44:37.810Z,98740.41
2023-04-28T05:47:04.362Z,98735.91
2023-04-28T05:49:31.014Z,98739.41
2023-04-28T05:51:57.627Z,98734.31
2023-04-28T05:54:24.211Z,98730.59
2023-04-28T05:56:50.728Z,98735.56
2023-04-28T05:59:17.596Z,98734.72
2023-04-28T06:01:44.576Z,98740.03
2023-04-28T06:04:11.542Z,98742.28
2023-04-28T06:06:38.521Z,98747.41
2023-04-28T06:09:05.078Z,98742.25
2023-04-28T06:11:31.630Z,98746.31
2023-04-28T06:13:58.175Z,98748.16
2023-04-28T06:16:24.683Z,98748.16
2023-04-28T06:18:51.154Z,98749.00
2023-04-28T06:21:17.681Z,98749.44
2023-04-28T06:23:44.427Z,98735.03
2023-04-28T06:26:11.159Z,98734.00
2023-04-28T06:28:37.867Z,98729.31
2023-04-28T06:31:04.692Z,98714.94
2023-04-28T06:33:31.474Z,98703.22
2023-04-28T06:35:58.033Z,98691.72
2023-04-28T06:38:24.668Z,98684.53
2023-04-28T06:40:51.078Z,98670.75
2023-04-28T06:43:17.545Z,98664.84
2023-04-28T06:45:44.407Z,98664.59
2023-04-28T06:48:11.274Z,98659.91
2023-04-28T06:50:37.836Z,98645.34
2023-04-28T06:53:04.266Z,98650.50
2023-04-28T06:55:30.874Z,98629.16
2023-04-28T06:57:57.771Z,98626.09
2023-04-28T07:00:24.532Z,98609.06
2023-04-28T07:02:51.148Z,98601.47
2023-04-28T07:05:17.930Z,98588.91
2023-04-28T07:07:45.418Z,98575.53
2023-04-28T07:10:12.066Z,98573.03
2023-04-28T07:12:38.786Z,98558.03
2023-04-28T07:15:05.739Z,98557.22
2023-04-28T07:17:32.296Z,98534.69
2023-04-28T07:19:58.970Z,98532.19
2023-04-28T07:22:25.398Z,98526.25
2023-04-28T07:24:53.001Z,98524.00
2023-04-28T07:27:19.570Z,98520.28
2023-04-28T07:29:46.158Z,98521.31
2023-04-28T07:32:12.708Z,98517.63
2023-04-28T07:34:39.461Z,98511.84
2023-04-28T07:37:07.387Z,98512.88
2023-04-28T07:39:36.950Z,98513.28
2023-04-28T07:42:05.844Z,98510.63
2023-04-28T07:44:33.320Z,98512.66
2023-04-28T07:47:01.514Z,98516.97
2023-04-28T07:49:32.454Z,98520.88
2023-04-28T07:52:00.765Z,98514.50
2023-04-28T07:54:28.651Z,98525.41
2023-04-28T07:56:57.656Z,98530.31
2023-04-28T07:59:24.331Z,98540.59
2023-04-28T08:01:50.734Z,98547.81
2023-04-28T08:04:17.587Z,98547.00
2023-04-28T08:06:44.348Z,98535.47
2023-04-28T08:09:10.875Z,98529.53
2023-04-28T08:11:37.295Z,98525.22
2023-04-28T08:14:04.141Z,98533.41
2023-04-28T08:16:31.791Z,98534.25
2023-04-28T08:18:59.162Z,98538.97
2023-04-28T08:21:25.862Z,98547.00
2023-04-28T08:23:52.626Z,98533.84
2023-04-28T08:26:19.345Z,98532.00
2023-04-28T08:28:45.855Z,98530.16
2023-04-28T08:31:12.733Z,98524.78
2023-04-28T08:33:39.497Z,98531.38
2023-04-28T08:36:06.195Z,98528.50
2023-04-28T08:38:32.572Z,98514.50
2023-04-28T08:40:58.958Z,98524.34
2023-04-28T08:43:25.470Z,98515.09
2023-04-28T08:45:52.233Z,98520.84
2023-04-28T08:48:20.768Z,98518.38
2023-04-28T08:50:51.069Z,98509.50
2023-04-28T08:53:27.609Z,98522.47
2023-04-28T08:55:58.587Z,98519.34
2023-04-28T08:58:28.239Z,98515.03
2023-04-28T09:00:55.058Z,98509.41
2023-04-28T09:03:21.825Z,98511.47
2023-04-28T09:05:48.597Z,98509.00
2023-04-28T09:08:15.301Z,98505.66
2023-04-28T09:10:41.890Z,98518.19
2023-04-28T09:13:08.272Z,98513.44
2023-04-28T09:15:36.806Z,98522.06
2023-04-28T09:18:08.516Z,98525.97
2023-04-28T09:20:36.163Z,98521.66
2023-04-28T09:23:20.824Z,98530.06
2023-04-28T09:26:01.858Z,98522.81
2023-04-28T09:28:28.802Z,98527.59
2023-04-28T09:30:55.706Z,98534.56
2023-04-28T09:33:22.341Z,98521.56
2023-04-28T09:35:48.988Z,98520.31
2023-04-28T09:38:16.215Z,98528.75
2023-04-28T09:41:02.797Z,98529.19
2023-04-28T09:43:34.499Z,98535.50
2023-04-28T09:46:03.236Z,98526.22
2023-04-28T09:48:32.238Z,98533.22
2023-04-28T09:51:02.820Z,98536.34
2023-04-28T09:53:30.513Z,98529.38
2023-04-28T09:55:58.974Z,98533.22
2023-04-28T09:58:26.739Z,98536.25
2023-04-28T10:00:56.201Z,98529.16
2023-04-28T10:03:29.380Z,98534.66
2023-04-28T10:05:58.062Z,98525.06
2023-04-28T10:08:25.706Z,98533.22
2023-04-28T10:10:53.507Z,98532.88
2023-04-28T10:13:21.413Z,98540.84
2023-04-28T10:15:49.572Z,98545.69
2023-04-28T10:18:16.539Z,98566.09
2023-04-28T10:20:48.829Z,98591.59
2023-04-28T10:23:39.809Z,98624.72
2023-04-28T10:26:12.584Z,98683.03
2023-04-28T10:28:46.157Z,98738.00
2023-04-28T10:31:15.325Z,98758.81
2023-04-28T10:33:42.912Z,98787.53
2023-04-28T10:36:10.188Z,98781.34
2023-04-28T10:39:09.151Z,98730.94
2023-04-28T10:41:35.614Z,98691.66
2023-04-28T10:44:30.930Z,98674.78
2023-04-28T10:47:04.341Z,98684.25
2023-04-28T10:49:55.568Z,98669.56
2023-04-28T10:52:33.909Z,98697.34
2023-04-28T10:55:32.872Z,98750.38
2023-04-28T10:58:17.980Z,98828.03
2023-04-28T11:00:45.070Z,98876.66
2023-04-28T11:03:42.697Z,98914.56
2023-04-28T11:06:32.471Z,98910.31
2023-04-28T11:09:05.866Z,98925.88
2023-04-28T11:11:33.374Z,98962.94
2023-04-28T11:14:17.950Z,98983.91
2023-04-28T11:17:01.071Z,98993.28
2023-04-28T11:19:28.305Z,99013.66
2023-04-28T11:21:56.893Z,99049.28
2023-04-28T11:24:27.186Z,99067.88
2023-04-28T11:26:57.500Z,99075.75
2023-04-28T11:29:38.445Z,99079.63
2023-04-28T11:32:09.738Z,99078.22
2023-04-28T11:34:37.435Z,99076.00
2023-04-28T11:37:04.749Z,99081.28
2023-04-28T11:39:34.610Z,99088.53
2023-04-28T11:42:02.827Z,99078.56
2023-04-28T11:44:31.216Z,99078.47
2023-04-28T11:46:59.913Z,99081.38
2023-04-28T11:49:27.840Z,99080.56
2023-04-28T11:51:56.101Z,99075.97
2023-04-28T11:54:28.903Z,99075.16
2023-04-28T11:56:58.583Z,99070.69
2023-04-28T11:59:29.765Z,99074.19
2023-04-28T12:02:01.341Z,99074.34
2023-04-28T12:04:30.544Z,99072.09
2023-04-28T12:07:17.210Z,99063.06
2023-04-28T12:09:49.289Z,99066.94
2023-04-28T12:12:40.134Z,99061.88
2023-04-28T12:15:16.072Z,99051.16
2023-04-28T12:17:43.862Z,99043.34
2023-04-28T12:20:12.434Z,99041.47
2023-04-28T12:22:50.031Z,99054.72
2023-04-28T12:25:18.576Z,99053.16
2023-04-28T12:28:07.887Z,99045.47
2023-04-28T12:30:36.341Z,99044.78
2023-04-28T12:33:02.965Z,99048.97
2023-04-28T12:35:30.126Z,99041.69
2023-04-28T12:37:57.335Z,99042.19
2023-04-28T12:40:23.987Z,99034.22
2023-04-28T12:42:53.451Z,99040.41
2023-04-28T12:45:19.938Z,99051.31
2023-04-28T12:47:46.517Z,99055.91
2023-04-28T12:50:13.018Z,99052.84
2023-04-28T12:52:39.560Z,99061.19
2023-04-28T12:55:06.465Z,99053.78
2023-04-28T12:57:33.271Z,99049.44
2023-04-28T12:59:59.829Z,99041.44
2023-04-28T13:02:26.505Z,99030.59
2023-04-28T13:04:53.677Z,99022.78
2023-04-28T13:07:20.581Z,99030.31
2023-04-28T13:09:47.679Z,99029.72
2023-04-28T13:12:15.000Z,99033.47
2023-04-28T13:14:41.808Z,99049.75
2023-04-28T13:17:08.475Z,99043.38
2023-04-28T13:19:35.315Z,99045.06
2023-04-28T13:22:01.742Z,99051.09
2023-04-28T13:24:28.218Z,99049.13
2023-04-28T13:26:54.707Z,99054.28
2023-04-28T13:29:21.221Z,99046.34
2023-04-28T13:31:47.700Z,99033.25
2023-04-28T13:34:14.593Z,99015.53
2023-04-28T13:36:41.154Z,98999.91
2023-04-28T13:39:07.880Z,99011.03
2023-04-28T13:41:34.710Z,99017.00
2023-04-28T13:44:01.383Z,99028.59
2023-04-28T13:46:29.016Z,99028.78
2023-04-28T13:48:55.573Z,99015.00
2023-04-28T13:51:23.733Z,99029.56
2023-04-28T13:53:50.216Z,99021.94
2023-04-28T13:56:16.691Z,99030.56
2023-04-28T13:58:43.144Z,99047.19
2023-04-28T14:01:09.620Z,99040.72
2023-04-28T14:03:36.265Z,99017.56
2023-04-28T14:06:03.435Z,98994.09
2023-04-28T14:08:29.971Z,98966.78
2023-04-28T14:10:56.420Z,98978.50
2023-04-28T14:13:22.818Z,98964.47
2023-04-28T14:15:58.553Z,98974.69
2023-04-28T14:18:26.309Z,98971.03
2023-04-28T14:20:52.771Z,98954.34
2023-04-28T14:23:19.573Z,98929.88
2023-04-28T14:25:46.220Z,98920.00
2023-04-28T14:28:12.851Z,98906.88
2023-04-28T14:30:39.367Z,98891.72
2023-04-28T14:33:06.058Z,98889.75
2023-04-28T14:35:32.862Z,98901.47
2023-04-28T14:37:59.459Z,98922.47
2023-04-28T14:40:25.970Z,98935.00
2023-04-28T14:42:52.857Z,98939.25
2023-04-28T14:45:20.468Z,98943.34
2023-04-28T14:47:47.008Z,98945.31
2023-04-28T14:50:14.254Z,98946.94
2023-04-28T14:52:41.440Z,98959.81
2023-04-28T14:58:51.000Z,98982.41
2023-04-28T15:01:17.855Z,98995.22
2023-04-28T15:03:44.532Z,99005.53
2023-04-28T15:06:11.065Z,99002.13
2023-04-28T15:08:37.842Z,99008.13
2023-04-28T15:11:05.386Z,98998.50
2023-04-28T15:13:32.282Z,99001.44
2023-04-28T15:15:58.769Z,99009.31
2023-04-28T15:18:25.302Z,99008.47
2023-04-28T15:20:51.902Z,98999.19
2023-04-28T15:23:26.194Z,99011.03
2023-04-28T15:25:52.652Z,99010.81
2023-04-28T15:28:20.303Z,99009.13
2023-04-28T15:30:46.722Z,99012.66
2023-04-28T15:33:13.650Z,99016.47
2023-04-28T15:35:40.403Z,99010.47
2023-04-28T15:38:07.000Z,98985.06
2023-04-28T15:40:33.631Z,98938.16
2023-04-28T15:43:00.302Z,98926.56
2023-04-28T15:45:26.994Z,98907.34
2023-04-28T15:47:53.896Z,98904.72
2023-04-28T15:50:21.369Z,98884.75
2023-04-28T15:52:48.455Z,98877.13
2023-04-28T15:55:19.965Z,98852.78
2023-04-28T15:57:47.772Z,98804.06
2023-04-28T16:00:15.194Z,98770.53
2023-04-28T16:02:43.055Z,98729.59
2023-04-28T16:05:10.137Z,98711.41
2023-04-28T16:07:37.581Z,98702.16
2023-04-28T16:10:11.993Z,98705.88
2023-04-28T16:12:39.427Z,98717.38
2023-04-28T16:15:08.331Z,98703.44
2023-04-28T16:17:35.072Z,98694.78
2023-04-28T16:20:02.009Z,98668.56
2023-04-28T16:22:28.412Z,98661.63
2023-04-28T16:24:55.330Z,98656.16
2023-04-28T16:27:21.802Z,98635.06
2023-04-28T16:29:48.237Z,98640.66
2023-04-28T16:32:15.080Z,98644.44
2023-04-28T16:34:43.869Z,98644.19
2023-04-28T16:37:10.234Z,98646.06
2023-04-28T16:39:36.679Z,98626.19
2023-04-28T16:42:03.318Z,98616.69
2023-04-28T16:44:30.499Z,98630.63
2023-04-28T16:46:57.643Z,98610.38
2023-04-28T16:49:24.587Z,98607.31
2023-04-28T16:51:59.041Z,98590.84
2023-04-28T16:54:26.359Z,98587.09
2023-04-28T16:56:52.869Z,98573.75
2023-04-28T16:59:19.465Z,98557.00
2023-04-28T17:01:46.029Z,98526.13
2023-04-28T17:04:14.515Z,98525.56
2023-04-28T17:06:41.450Z,98517.13
2023-04-28T17:09:08.233Z,98528.00
2023-04-28T17:11:34.591Z,98540.88
2023-04-28T17:14:04.731Z,98546.72
2023-04-28T17:19:24.195Z,98566.13
2023-04-28T17:21:52.209Z,98564.97
2023-04-28T17:24:18.830Z,98577.84
2023-04-28T17:26:45.373Z,98584.97
2023-04-28T17:29:11.960Z,98579.13
2023-04-28T17:31:39.293Z,98574.56
2023-04-28T17:34:05.932Z,98586.72
2023-04-28T17:36:32.441Z,98571.50
2023-04-28T17:38:59.060Z,98561.34
2023-04-28T17:41:26.182Z,98557.00
2023-04-28T17:43:53.025Z,98541.34
2023-04-28T17:46:19.545Z,98538.88
2023-04-28T17:48:46.707Z,98538.88
2023-04-28T17:51:13.427Z,98554.22
2023-04-28T17:53:39.913Z,98550.91
2023-04-28T17:56:06.758Z,98559.66
2023-04-28T17:58:33.317Z,98557.22
2023-04-28T18:01:05.600Z,98547.34
2023-04-28T18:03:34.852Z,98536.72
2023-04-28T18:06:01.800Z,98529.31
2023-04-28T18:08:28.284Z,98520.19
2023-04-28T18:10:54.732Z,98516.78
2023-04-28T18:13:21.138Z,98508.13
2023-04-28T18:15:47.643Z,98504.84
2023-04-28T18:18:14.451Z,98501.66
2023-04-28T18:20:42.326Z,98507.38
2023-04-28T18:23:09.309Z,98493.91
2023-04-28T18:25:36.314Z,98499.81
2023-04-28T18:28:05.552Z,98494.75
2023-04-28T18:30:33.175Z,98486.78
2023-04-28T18:32:59.803Z,98486.06
2023-04-28T18:35:27.696Z,98470.63
2023-04-28T18:37:54.368Z,98468.53
2023-04-28T18:40:20.909Z,98474.88
2023-04-28T18:42:47.388Z,98473.34
2023-04-28T18:45:17.323Z,98463.50
2023-04-28T18:47:43.702Z,98468.03
2023-04-28T18:50:14.275Z,98461.09
2023-04-28T18:52:42.242Z,98458.16
2023-04-28T18:55:09.162Z,98458.47
2023-04-28T18:57:35.872Z,98454.22
2023-04-28T19:00:02.501Z,98464.22
2023-04-28T19:02:29.008Z,98460.63
2023-04-28T19:04:55.556Z,98461.06
2023-04-28T19:07:31.732Z,98455.53
2023-04-28T19:09:58.778Z,98463.44
2023-04-28T19:12:25.737Z,98468.66
2023-04-28T19:14:52.145Z,98477.13
2023-04-28T19:17:18.684Z,98467.09
2023-04-28T19:19:46.552Z,98465.66
2023-04-28T19:22:39.757Z,98470.78
2023-04-28T19:25:06.675Z,98472.94
2023-04-28T19:27:36.208Z,98477.31
2023-04-28T19:30:06.189Z,98479.00
2023-04-28T19:32:33.992Z,98472.81
2023-04-28T19:35:00.885Z,98473.47
2023-04-28T19:37:27.457Z,98483.75
2023-04-28T19:39:54.105Z,98480.94
2023-04-28T19:42:20.598Z,98489.41
2023-04-28T19:44:47.691Z,98478.31
2023-04-28T19:47:25.716Z,98483.72
2023-04-28T19:49:52.689Z,98482.53
2023-04-28T19:52:20.773Z,98489.00
2023-04-28T19:54:48.771Z,98487.75
2023-04-28T19:57:16.819Z,98495.22
2023-04-28T19:59:43.329Z,98488.00
2023-04-28T20:02:10.172Z,98494.22
2023-04-28T20:04:37.999Z,98492.78
2023-04-28T20:07:05.572Z,98500.38
2023-04-28T20:09:35.762Z,98500.38
2023-04-28T20:12:04.367Z,98503.09
2023-04-28T20:14:31.482Z,98505.19
2023-04-28T20:16:58.583Z,98503.81
2023-04-28T20:19:25.214Z,98496.19
2023-04-28T20:21:51.742Z,98501.97
2023-04-28T20:24:18.310Z,98495.03
2023-04-28T20:26:44.878Z,98501.41
2023-04-28T20:29:14.120Z,98491.38
2023-04-28T20:31:40.542Z,98490.13
2023-04-28T20:34:08.513Z,98486.44
2023-04-28T20:36:35.046Z,98489.34
2023-04-28T20:39:01.468Z,98489.75
2023-04-28T20:41:27.890Z,98485.88
2023-04-28T20:43:54.490Z,98482.19
2023-04-28T20:46:20.906Z,98477.44
2023-04-28T20:48:47.378Z,98481.56
2023-04-28T20:51:14.114Z,98483.00
2023-04-28T20:53:40.539Z,98482.22
2023-04-28T20:56:06.943Z,98486.94
2023-04-28T20:58:33.405Z,98485.09
2023-04-28T21:01:00.243Z,98496.81
2023-04-28T21:03:26.853Z,98495.16
2023-04-28T21:05:53.283Z,98499.28
2023-04-28T21:08:20.309Z,98492.72
2023-04-28T21:10:46.844Z,98499.50
2023-04-28T21:13:13.296Z,98507.94
2023-04-28T21:15:40.435Z,98507.72
2023-04-28T21:18:07.418Z,98516.38
2023-04-28T21:20:36.150Z,98517.38
2023-04-28T21:23:02.561Z,98509.78
2023-04-28T21:25:29.075Z,98509.19
2023-04-28T21:27:55.645Z,98504.66
2023-04-28T21:30:22.492Z,98511.63
2023-04-28T21:32:49.088Z,98510.41
2023-04-28T21:35:15.927Z,98510.41
2023-04-28T21:37:42.837Z,98511.19
2023-04-28T21:40:09.989Z,98515.53
2023-04-28T21:42:36.620Z,98515.94
2023-04-28T21:45:03.596Z,98514.50
2023-04-28T21:47:30.083Z,98523.34
2023-04-28T21:49:58.080Z,98521.47
2023-04-28T21:52:24.613Z,98519.22
2023-04-28T21:54:51.032Z,98521.69
2023-04-28T21:57:17.615Z,98522.31
2023-04-28T21:59:45.172Z,98516.97
2023-04-28T22:02:12.968Z,98514.50
2023-04-28T22:04:40.813Z,98517.59
2023-04-28T22:07:07.644Z,98521.88
2023-04-28T22:09:34.378Z,98526.00
2023-04-28T22:12:00.775Z,98522.91
2023-04-28T22:14:47.121Z,98516.75
2023-04-28T22:17:13.563Z,98515.13
2023-04-28T22:19:39.932Z,98522.09
2023-04-28T22:22:07.154Z,98526.63
2023-04-28T22:24:33.593Z,98522.50
2023-04-28T22:27:00.140Z,98519.44
2023-04-28T22:29:26.601Z,98525.19
2023-04-28T22:31:52.941Z,98519.44
2023-04-28T22:34:19.772Z,98528.06
2023-04-28T22:36:46.155Z,98530.16
2023-04-28T22:39:12.511Z,98529.94
2023-04-28T22:41:41.900Z,98521.72
2023-04-28T22:44:08.352Z,98522.13
2023-04-28T22:46:36.222Z,98524.00
2023-04-28T22:49:03.100Z,98515.13
2023-04-28T22:51:29.725Z,98519.44
2023-04-28T22:53:56.089Z,98516.59
2023-04-28T22:56:22.987Z,98515.34
2023-04-28T22:58:50.932Z,98521.31
2023-04-28T23:01:17.604Z,98518.88
2023-04-28T23:03:44.218Z,98514.13
2023-04-28T23:06:11.093Z,98516.16
2023-04-28T23:08:37.594Z,98518.25
2023-04-28T23:11:07.385Z,98521.31
2023-04-28T23:13:34.127Z,98517.22
2023-04-28T23:16:00.954Z,98513.31
2023-04-28T23:18:33.255Z,98503.19
2023-04-28T23:20:59.663Z,98513.25
2023-04-28T23:23:26.379Z,98518.59
2023-04-28T23:25:52.825Z,98518.03
2023-04-28T23:28:21.672Z,98511.41
2023-04-28T23:30:48.318Z,98516.31
2023-04-28T23:33:14.724Z,98509.75
2023-04-28T23:35:41.133Z,98515.72
2023-04-28T23:38:08.159Z,98515.50
2023-04-28T23:40:35.961Z,98517.56
2023-04-28T23:43:02.687Z,98518.38
2023-04-28T23:45:30.985Z,98517.56
2023-04-28T23:47:57.555Z,98518.38
2023-04-28T23:50:26.667Z,98525.13
2023-04-28T23:52:53.080Z,98512.41
2023-04-28T23:55:19.864Z,98510.13
2023-04-28T23:57:46.244Z,98506.19
